sensor_id;sensor_type;location;lat;lon;timestamp;pressure;altitude;pressure_sealevel;temperature;humidity
14383;BME280;7275;50.328;8.720;2022-11-20T00:00:52;99366.41;;;8.51;48.17
14383;BME280;7275;50.328;8.720;2022-11-20T00:03:22;99359.34;;;8.51;48.32
14383;BME280;7275;50.328;8.720;2022-11-20T00:05:49;99346.22;;;8.50;48.38
14383;BME280;7275;50.328;8.720;2022-11-20T00:08:17;99358.59;;;8.48;48.14
14383;BME280;7275;50.328;8.720;2022-11-20T00:10:45;99356.94;;;8.45;48.37
14383;BME280;7275;50.328;8.720;2022-11-20T00:13:12;99356.94;;;8.45;48.36
14383;BME280;7275;50.328;8.720;2022-11-20T00:15:40;99347.25;;;8.46;48.38
14383;BME280;7275;50.328;8.720;2022-11-20T00:18:07;99354.28;;;8.45;48.50
14383;BME280;7275;50.328;8.720;2022-11-20T00:20:36;99355.16;;;8.46;48.32
14383;BME280;7275;50.328;8.720;2022-11-20T00:23:04;99352.47;;;8.47;48.38
14383;BME280;7275;50.328;8.720;2022-11-20T00:25:33;99346.22;;;8.50;48.14
14383;BME280;7275;50.328;8.720;2022-11-20T00:28:01;99344.41;;;8.52;48.14
14383;BME280;7275;50.328;8.720;2022-11-20T00:30:29;99345.22;;;8.54;48.09
14383;BME280;7275;50.328;8.720;2022-11-20T00:32:56;99339.94;;;8.54;47.99
14383;BME280;7275;50.328;8.720;2022-11-20T00:35:24;99343.44;;;8.54;48.06
14383;BME280;7275;50.328;8.720;2022-11-20T00:37:53;99339.88;;;8.55;47.96
14383;BME280;7275;50.328;8.720;2022-11-20T00:40:21;99339.84;;;8.57;48.04
14383;BME280;7275;50.328;8.720;2022-11-20T00:42:48;99337.09;;;8.60;48.14
14383;BME280;7275;50.328;8.720;2022-11-20T00:45:16;99327.44;;;8.60;47.90
14383;BME280;7275;50.328;8.720;2022-11-20T00:47:43;99326.69;;;8.57;47.99
14383;BME280;7275;50.328;8.720;2022-11-20T00:50:11;99335.53;;;8.54;48.05
14383;BME280;7275;50.328;8.720;2022-11-20T00:52:39;99332.09;;;8.52;48.01
14383;BME280;7275;50.328;8.720;2022-11-20T00:55:08;99326.03;;;8.50;47.95
14383;BME280;7275;50.328;8.720;2022-11-20T00:57:35;99340.97;;;8.50;48.12
14383;BME280;7275;50.328;8.720;2022-11-20T01:00:04;99345.38;;;8.49;48.04
14383;BME280;7275;50.328;8.720;2022-11-20T01:02:32;99345.38;;;8.49;47.87
14383;BME280;7275;50.328;8.720;2022-11-20T01:04:59;99331.31;;;8.50;47.87
14383;BME280;7275;50.328;8.720;2022-11-20T01:07:27;99314.63;;;8.50;47.86
14383;BME280;7275;50.328;8.720;2022-11-20T01:09:54;99320.06;;;8.45;47.82
14383;BME280;7275;50.328;8.720;2022-11-20T01:12:31;99323.72;;;8.41;47.87
14383;BME280;7275;50.328;8.720;2022-11-20T01:14:58;99320.19;;;8.42;47.82
14383;BME280;7275;50.328;8.720;2022-11-20T01:17:26;99320.97;;;8.44;47.89
14383;BME280;7275;50.328;8.720;2022-11-20T01:19:53;99330.59;;;8.45;47.84
14383;BME280;7275;50.328;8.720;2022-11-20T01:22:21;99325.31;;;8.45;47.92
14383;BME280;7275;50.328;8.720;2022-11-20T01:24:48;99329.69;;;8.46;47.96
14383;BME280;7275;50.328;8.720;2022-11-20T01:27:16;99326.13;;;8.47;48.07
14383;BME280;7275;50.328;8.720;2022-11-20T01:29:45;99330.38;;;8.51;48.01
14383;BME280;7275;50.328;8.720;2022-11-20T01:32:12;99330.34;;;8.53;48.17
14383;BME280;7275;50.328;8.720;2022-11-20T01:34:40;99319.69;;;8.56;48.08
14383;BME280;7275;50.328;8.720;2022-11-20T01:37:07;99328.44;;;8.56;47.84
14383;BME280;7275;50.328;8.720;2022-11-20T01:39:35;99320.59;;;8.55;47.69
14383;BME280;7275;50.328;8.720;2022-11-20T01:42:02;99331.19;;;8.53;47.96
14383;BME280;7275;50.328;8.720;2022-11-20T01:44:55;99322.59;;;8.48;47.73
14383;BME280;7275;50.328;8.720;2022-11-20T01:47:30;99322.69;;;8.45;47.74
14383;BME280;7275;50.328;8.720;2022-11-20T01:50:03;99312.31;;;8.41;47.66
14383;BME280;7275;50.328;8.720;2022-11-20T01:52:34;99313.28;;;8.38;47.77
14383;BME280;7275;50.328;8.720;2022-11-20T01:55:06;99312.53;;;8.35;47.93
14383;BME280;7275;50.328;8.720;2022-11-20T01:57:35;99315.13;;;8.36;47.67
14383;BME280;7275;50.328;8.720;2022-11-20T02:00:07;99308.19;;;8.34;47.59
14383;BME280;7275;50.328;8.720;2022-11-20T02:02:36;99322.25;;;8.33;47.82
14383;BME280;7275;50.328;8.720;2022-11-20T02:05:13;99306.50;;;8.31;47.85
14383;BME280;7275;50.328;8.720;2022-11-20T02:07:42;99303.88;;;8.31;47.78
14383;BME280;7275;50.328;8.720;2022-11-20T02:10:11;99316.19;;;8.31;47.99
14383;BME280;7275;50.328;8.720;2022-11-20T02:12:38;99320.53;;;8.32;47.91
14383;BME280;7275;50.328;8.720;2022-11-20T02:15:25;99320.59;;;8.30;47.78
14383;BME280;7275;50.328;8.720;2022-11-20T02:17:56;99311.78;;;8.31;47.61
14383;BME280;7275;50.328;8.720;2022-11-20T02:20:23;99316.97;;;8.33;47.77
14383;BME280;7275;50.328;8.720;2022-11-20T02:22:55;99318.88;;;8.29;47.41
14383;BME280;7275;50.328;8.720;2022-11-20T02:25:25;99322.38;;;8.30;47.77
14383;BME280;7275;50.328;8.720;2022-11-20T02:27:54;99319.81;;;8.27;47.72
14383;BME280;7275;50.328;8.720;2022-11-20T02:30:22;99313.72;;;8.25;47.88
14383;BME280;7275;50.328;8.720;2022-11-20T02:32:50;99316.34;;;8.25;47.94
14383;BME280;7275;50.328;8.720;2022-11-20T02:35:41;99319.81;;;8.27;47.84
14383;BME280;7275;50.328;8.720;2022-11-20T02:38:09;99318.00;;;8.29;47.69
14383;BME280;7275;50.328;8.720;2022-11-20T02:40:39;99313.53;;;8.31;47.90
14383;BME280;7275;50.328;8.720;2022-11-20T02:43:07;99308.19;;;8.34;47.97
14383;BME280;7275;50.328;8.720;2022-11-20T02:45:34;99310.75;;;8.35;47.63
14383;BME280;7275;50.328;8.720;2022-11-20T02:48:02;99309.00;;;8.36;47.71
14383;BME280;7275;50.328;8.720;2022-11-20T02:50:30;99306.34;;;8.36;47.71
14383;BME280;7275;50.328;8.720;2022-11-20T02:52:57;99294.09;;;8.35;47.71
14383;BME280;7275;50.328;8.720;2022-11-20T02:55:25;99305.44;;;8.37;47.81
14383;BME280;7275;50.328;8.720;2022-11-20T02:57:54;99304.63;;;8.35;47.64
14383;BME280;7275;50.328;8.720;2022-11-20T03:00:22;99300.22;;;8.35;47.54
14383;BME280;7275;50.328;8.720;2022-11-20T03:02:49;99295.81;;;8.36;47.59
14383;BME280;7275;50.328;8.720;2022-11-20T03:05:17;99298.53;;;8.34;47.69
14383;BME280;7275;50.328;8.720;2022-11-20T03:07:44;99303.72;;;8.36;47.55
14383;BME280;7275;50.328;8.720;2022-11-20T03:10:12;99297.53;;;8.37;47.64
14383;BME280;7275;50.328;8.720;2022-11-20T03:12:39;99291.38;;;8.38;47.79
14383;BME280;7275;50.328;8.720;2022-11-20T03:15:09;99289.53;;;8.40;47.52
14383;BME280;7275;50.328;8.720;2022-11-20T03:17:37;99279.75;;;8.43;47.74
14383;BME280;7275;50.328;8.720;2022-11-20T03:20:07;99284.84;;;8.48;47.48
14383;BME280;7275;50.328;8.720;2022-11-20T03:22:35;99270.72;;;8.50;47.59
14383;BME280;7275;50.328;8.720;2022-11-20T03:25:03;99276.09;;;8.47;47.66
14383;BME280;7275;50.328;8.720;2022-11-20T03:27:32;99282.34;;;8.45;47.46
14383;BME280;7275;50.328;8.720;2022-11-20T03:30:00;99275.34;;;8.44;47.37
14383;BME280;7275;50.328;8.720;2022-11-20T03:32:29;99277.97;;;8.44;47.47
14383;BME280;7275;50.328;8.720;2022-11-20T03:34:57;99280.59;;;8.44;47.50
14383;BME280;7275;50.328;8.720;2022-11-20T03:37:25;99287.56;;;8.46;47.39
14383;BME280;7275;50.328;8.720;2022-11-20T03:39:52;99298.09;;;8.46;47.47
14383;BME280;7275;50.328;8.720;2022-11-20T03:42:20;99289.31;;;8.46;47.55
14383;BME280;7275;50.328;8.720;2022-11-20T03:45:05;99298.19;;;8.43;47.49
14383;BME280;7275;50.328;8.720;2022-11-20T03:47:35;99292.91;;;8.43;47.60
14383;BME280;7275;50.328;8.720;2022-11-20T03:50:03;99284.09;;;8.44;47.63
14383;BME280;7275;50.328;8.720;2022-11-20T03:52:30;99268.41;;;8.41;47.36
14383;BME280;7275;50.328;8.720;2022-11-20T03:54:58;99273.66;;;8.41;47.58
14383;BME280;7275;50.328;8.720;2022-11-20T03:57:25;99272.72;;;8.44;47.47
14383;BME280;7275;50.328;8.720;2022-11-20T03:59:53;99268.31;;;8.44;47.54
14383;BME280;7275;50.328;8.720;2022-11-20T04:02:20;99262.97;;;8.46;47.46
14383;BME280;7275;50.328;8.720;2022-11-20T04:04:49;99256.84;;;8.45;47.24
14383;BME280;7275;50.328;8.720;2022-11-20T04:07:17;99262.25;;;8.42;47.45
14383;BME280;7275;50.328;8.720;2022-11-20T04:09:45;99270.16;;;8.41;47.48
14383;BME280;7275;50.328;8.720;2022-11-20T04:12:12;99266.56;;;8.43;47.57
14383;BME280;7275;50.328;8.720;2022-11-20T04:14:40;99263.84;;;8.46;47.31
14383;BME280;7275;50.328;8.720;2022-11-20T04:17:07;99263.72;;;8.49;47.62
14383;BME280;7275;50.328;8.720;2022-11-20T04:19:35;99252.22;;;8.52;47.40
14383;BME280;7275;50.328;8.720;2022-11-20T04:22:04;99250.44;;;8.52;47.43
14383;BME280;7275;50.328;8.720;2022-11-20T04:24:31;99244.25;;;8.53;47.32
14383;BME280;7275;50.328;8.720;2022-11-20T04:26:59;99248.56;;;8.56;47.52
14383;BME280;7275;50.328;8.720;2022-11-20T04:29:26;99248.50;;;8.57;47.34
14383;BME280;7275;50.328;8.720;2022-11-20T04:31:54;99248.41;;;8.60;47.29
14383;BME280;7275;50.328;8.720;2022-11-20T04:34:21;99236.97;;;8.61;47.45
14383;BME280;7275;50.328;8.720;2022-11-20T04:36:49;99247.53;;;8.60;47.22
14383;BME280;7275;50.328;8.720;2022-11-20T04:39:18;99259.03;;;8.57;47.22
14383;BME280;7275;50.328;8.720;2022-11-20T04:41:46;99252.06;;;8.56;47.17
14383;BME280;7275;50.328;8.720;2022-11-20T04:44:14;99247.69;;;8.55;47.43
14383;BME280;7275;50.328;8.720;2022-11-20T04:46:42;99241.69;;;8.52;47.25
14383;BME280;7275;50.328;8.720;2022-11-20T04:49:11;99247.91;;;8.49;47.35
14383;BME280;7275;50.328;8.720;2022-11-20T04:51:39;99241.75;;;8.50;47.62
14383;BME280;7275;50.328;8.720;2022-11-20T04:54:06;99232.00;;;8.52;47.61
14383;BME280;7275;50.328;8.720;2022-11-20T04:56:35;99231.94;;;8.54;47.36
14383;BME280;7275;50.328;8.720;2022-11-20T04:59:02;99238.97;;;8.53;47.53
14383;BME280;7275;50.328;8.720;2022-11-20T05:01:30;99240.66;;;8.56;47.32
14383;BME280;7275;50.328;8.720;2022-11-20T05:03:58;99237.91;;;8.59;47.28
14383;BME280;7275;50.328;8.720;2022-11-20T05:06:26;99250.06;;;8.63;47.45
14383;BME280;7275;50.328;8.720;2022-11-20T05:08:54;99252.63;;;8.64;47.33
14383;BME280;7275;50.328;8.720;2022-11-20T05:11:21;99244.63;;;8.67;47.50
14383;BME280;7275;50.328;8.720;2022-11-20T05:13:51;99244.44;;;8.72;47.14
14383;BME280;7275;50.328;8.720;2022-11-20T05:16:21;99238.19;;;8.74;47.44
14383;BME280;7275;50.328;8.720;2022-11-20T05:18:50;99245.19;;;8.75;47.31
14383;BME280;7275;50.328;8.720;2022-11-20T05:21:18;99246.06;;;8.76;47.03
14383;BME280;7275;50.328;8.720;2022-11-20T05:23:46;99240.72;;;8.77;47.11
14383;BME280;7275;50.328;8.720;2022-11-20T05:26:16;99242.44;;;8.78;47.40
14383;BME280;7275;50.328;8.720;2022-11-20T05:28:44;99253.03;;;8.77;47.20
14383;BME280;7275;50.328;8.720;2022-11-20T05:31:15;99248.50;;;8.80;47.31
14383;BME280;7275;50.328;8.720;2022-11-20T05:33:50;99252.97;;;8.78;46.88
14383;BME280;7275;50.328;8.720;2022-11-20T05:36:18;99241.59;;;8.78;47.33
14383;BME280;7275;50.328;8.720;2022-11-20T05:38:46;99257.41;;;8.78;47.15
14383;BME280;7275;50.328;8.720;2022-11-20T05:41:18;99252.97;;;8.78;47.33
14383;BME280;7275;50.328;8.720;2022-11-20T05:43:47;99257.28;;;8.81;47.21
14383;BME280;7275;50.328;8.720;2022-11-20T05:46:18;99250.16;;;8.83;47.45
14383;BME280;7275;50.328;8.720;2022-11-20T05:48:54;99238.72;;;8.84;47.39
14383;BME280;7275;50.328;8.720;2022-11-20T05:51:23;99230.75;;;8.85;47.43
14383;BME280;7275;50.328;8.720;2022-11-20T05:53:51;99223.75;;;8.84;47.22
14383;BME280;7275;50.328;8.720;2022-11-20T05:56:19;99225.59;;;8.82;47.26
14383;BME280;7275;50.328;8.720;2022-11-20T05:58:47;99233.56;;;8.81;47.57
14383;BME280;7275;50.328;8.720;2022-11-20T06:01:21;99236.19;;;8.81;47.28
14383;BME280;7275;50.328;8.720;2022-11-20T06:03:49;99235.31;;;8.80;47.39
14383;BME280;7275;50.328;8.720;2022-11-20T06:06:18;99227.41;;;8.80;47.45
14383;BME280;7275;50.328;8.720;2022-11-20T06:08:46;99235.31;;;8.80;47.38
14383;BME280;7275;50.328;8.720;2022-11-20T06:11:15;99239.78;;;8.80;47.60
14383;BME280;7275;50.328;8.720;2022-11-20T06:13:44;99235.31;;;8.80;47.43
14383;BME280;7275;50.328;8.720;2022-11-20T06:16:14;99229.16;;;8.81;47.32
14383;BME280;7275;50.328;8.720;2022-11-20T06:18:43;99231.06;;;8.78;47.48
14383;BME280;7275;50.328;8.720;2022-11-20T06:21:13;99233.88;;;8.73;47.34
14383;BME280;7275;50.328;8.720;2022-11-20T06:23:41;99226.13;;;8.69;47.67
14383;BME280;7275;50.328;8.720;2022-11-20T06:26:12;99220.91;;;8.67;47.36
14383;BME280;7275;50.328;8.720;2022-11-20T06:28:41;99234.13;;;8.66;47.43
14383;BME280;7275;50.328;8.720;2022-11-20T06:31:10;99213.13;;;8.64;47.67
14383;BME280;7275;50.328;8.720;2022-11-20T06:33:38;99202.66;;;8.63;47.65
14383;BME280;7275;50.328;8.720;2022-11-20T06:36:07;99200.91;;;8.62;47.76
14383;BME280;7275;50.328;8.720;2022-11-20T06:38:37;99224.78;;;8.57;47.95
14383;BME280;7275;50.328;8.720;2022-11-20T06:41:05;99209.84;;;8.58;47.94
14383;BME280;7275;50.328;8.720;2022-11-20T06:43:33;99198.44;;;8.57;47.78
14383;BME280;7275;50.328;8.720;2022-11-20T06:46:01;99208.19;;;8.55;47.74
14383;BME280;7275;50.328;8.720;2022-11-20T06:48:29;99213.50;;;8.54;47.99
14383;BME280;7275;50.328;8.720;2022-11-20T06:50:57;99218.72;;;8.55;48.01
14383;BME280;7275;50.328;8.720;2022-11-20T06:53:26;99209.84;;;8.58;47.91
14383;BME280;7275;50.328;8.720;2022-11-20T06:55:55;99217.72;;;8.59;47.92
14383;BME280;7275;50.328;8.720;2022-11-20T06:58:26;99214.22;;;8.59;47.87
14383;BME280;7275;50.328;8.720;2022-11-20T07:00:54;99219.47;;;8.59;48.18
14383;BME280;7275;50.328;8.720;2022-11-20T07:03:24;99219.41;;;8.60;48.14
14383;BME280;7275;50.328;8.720;2022-11-20T07:05:54;99224.59;;;8.63;48.20
14383;BME280;7275;50.328;8.720;2022-11-20T07:08:23;99222.69;;;8.67;48.23
14383;BME280;7275;50.328;8.720;2022-11-20T07:10:52;99222.69;;;8.67;48.14
14383;BME280;7275;50.328;8.720;2022-11-20T07:13:19;99237.53;;;8.69;47.96
14383;BME280;7275;50.328;8.720;2022-11-20T07:15:47;99235.69;;;8.71;48.22
14383;BME280;7275;50.328;8.720;2022-11-20T07:18:15;99242.63;;;8.74;48.09
14383;BME280;7275;50.328;8.720;2022-11-20T07:20:43;99231.16;;;8.75;48.19
14383;BME280;7275;50.328;8.720;2022-11-20T07:23:10;99232.94;;;8.74;47.89
14383;BME280;7275;50.328;8.720;2022-11-20T07:25:38;99234.75;;;8.72;48.16
14383;BME280;7275;50.328;8.720;2022-11-20T07:28:07;99234.75;;;8.72;47.92
14383;BME280;7275;50.328;8.720;2022-11-20T07:30:36;99229.56;;;8.71;48.00
14383;BME280;7275;50.328;8.720;2022-11-20T07:33:04;99233.09;;;8.70;48.21
14383;BME280;7275;50.328;8.720;2022-11-20T07:35:32;99238.38;;;8.70;48.10
14383;BME280;7275;50.328;8.720;2022-11-20T07:38:00;99220.84;;;8.69;48.36
14383;BME280;7275;50.328;8.720;2022-11-20T07:40:27;99225.19;;;8.70;48.23
14383;BME280;7275;50.328;8.720;2022-11-20T07:42:55;99233.06;;;8.71;48.13
14383;BME280;7275;50.328;8.720;2022-11-20T07:45:24;99232.09;;;8.74;48.25
14383;BME280;7275;50.328;8.720;2022-11-20T07:47:52;99242.50;;;8.77;48.34
14383;BME280;7275;50.328;8.720;2022-11-20T07:50:19;99250.25;;;8.81;48.56
14383;BME280;7275;50.328;8.720;2022-11-20T07:52:47;99250.88;;;8.88;48.55
14383;BME280;7275;50.328;8.720;2022-11-20T07:55:15;99245.44;;;8.93;48.36
14383;BME280;7275;50.328;8.720;2022-11-20T07:57:42;99249.66;;;8.97;48.23
14383;BME280;7275;50.328;8.720;2022-11-20T08:00:11;99243.41;;;8.99;48.28
14383;BME280;7275;50.328;8.720;2022-11-20T08:02:40;99248.56;;;9.02;48.10
14383;BME280;7275;50.328;8.720;2022-11-20T08:05:09;99258.06;;;9.06;48.07
14383;BME280;7275;50.328;8.720;2022-11-20T08:07:38;99256.31;;;9.07;48.25
14383;BME280;7275;50.328;8.720;2022-11-20T08:10:07;99261.28;;;9.14;48.25
14383;BME280;7275;50.328;8.720;2022-11-20T08:12:34;99264.66;;;9.18;48.26
14383;BME280;7275;50.328;8.720;2022-11-20T08:15:20;99258.47;;;9.19;48.40
14383;BME280;7275;50.328;8.720;2022-11-20T08:17:49;99253.00;;;9.23;48.55
14383;BME280;7275;50.328;8.720;2022-11-20T08:20:36;99263.38;;;9.28;48.43
14383;BME280;7275;50.328;8.720;2022-11-20T08:23:05;99265.88;;;9.31;48.58
14383;BME280;7275;50.328;8.720;2022-11-20T08:25:35;99257.88;;;9.34;48.52
14383;BME280;7275;50.328;8.720;2022-11-20T08:28:05;99252.22;;;9.43;48.45
14383;BME280;7275;50.328;8.720;2022-11-20T08:30:45;99255.47;;;9.49;48.62
14383;BME280;7275;50.328;8.720;2022-11-20T08:33:14;99252.56;;;9.55;48.46
14383;BME280;7275;50.328;8.720;2022-11-20T08:35:43;99256.69;;;9.62;48.73
14383;BME280;7275;50.328;8.720;2022-11-20T08:38:11;99264.38;;;9.68;48.18
14383;BME280;7275;50.328;8.720;2022-11-20T08:40:39;99266.03;;;9.71;48.20
14383;BME280;7275;50.328;8.720;2022-11-20T08:43:06;99266.75;;;9.75;48.50
14383;BME280;7275;50.328;8.720;2022-11-20T08:45:34;99267.44;;;9.80;48.64
14383;BME280;7275;50.328;8.720;2022-11-20T08:48:03;99266.47;;;9.82;48.60
14383;BME280;7275;50.328;8.720;2022-11-20T08:50:32;99270.69;;;9.86;48.21
14383;BME280;7275;50.328;8.720;2022-11-20T08:53:02;99264.22;;;9.93;48.43
14383;BME280;7275;50.328;8.720;2022-11-20T08:55:30;99271.03;;;9.99;48.44
14383;BME280;7275;50.328;8.720;2022-11-20T08:57:57;99271.84;;;10.01;48.52
14383;BME280;7275;50.328;8.720;2022-11-20T09:00:25;99272.53;;;10.04;48.28
14383;BME280;7275;50.328;8.720;2022-11-20T09:02:53;99281.34;;;10.05;48.27
14383;BME280;7275;50.328;8.720;2022-11-20T09:05:20;99272.63;;;10.03;48.01
14383;BME280;7275;50.328;8.720;2022-11-20T09:07:49;99276.06;;;10.05;48.20
14383;BME280;7275;50.328;8.720;2022-11-20T09:10:17;99274.84;;;10.13;48.62
14383;BME280;7275;50.328;8.720;2022-11-20T09:12:50;99269.91;;;10.26;48.70
14383;BME280;7275;50.328;8.720;2022-11-20T09:15:18;99274.66;;;10.38;48.56
14383;BME280;7275;50.328;8.720;2022-11-20T09:17:50;99275.09;;;10.48;48.57
14383;BME280;7275;50.328;8.720;2022-11-20T09:20:18;99271.94;;;10.60;48.22
14383;BME280;7275;50.328;8.720;2022-11-20T09:22:45;99273.09;;;10.73;48.08
14383;BME280;7275;50.328;8.720;2022-11-20T09:25:15;99278.56;;;11.07;48.72
14383;BME280;7275;50.328;8.720;2022-11-20T09:27:42;99278.19;;;11.52;48.96
14383;BME280;7275;50.328;8.720;2022-11-20T09:30:13;99279.72;;;11.76;48.25
14383;BME280;7275;50.328;8.720;2022-11-20T09:32:41;99273.16;;;11.83;48.09
14383;BME280;7275;50.328;8.720;2022-11-20T09:35:09;99272.88;;;11.89;47.75
14383;BME280;7275;50.328;8.720;2022-11-20T09:37:37;99275.13;;;11.96;47.90
14383;BME280;7275;50.328;8.720;2022-11-20T09:40:06;99273.81;;;12.05;47.92
14383;BME280;7275;50.328;8.720;2022-11-20T09:42:40;99273.28;;;12.16;47.62
14383;BME280;7275;50.328;8.720;2022-11-20T09:45:16;99278.09;;;12.25;47.61
14383;BME280;7275;50.328;8.720;2022-11-20T09:47:56;99277.28;;;12.24;47.36
14383;BME280;7275;50.328;8.720;2022-11-20T09:50:30;99280.22;;;12.18;47.07
14383;BME280;7275;50.328;8.720;2022-11-20T09:53:11;99283.25;;;12.11;47.10
14383;BME280;7275;50.328;8.720;2022-11-20T09:55:40;99274.06;;;12.00;46.93
14383;BME280;7275;50.328;8.720;2022-11-20T09:58:16;99271.00;;;11.91;46.88
14383;BME280;7275;50.328;8.720;2022-11-20T10:00:47;99267.09;;;11.81;47.21
14383;BME280;7275;50.328;8.720;2022-11-20T10:03:19;99271.84;;;11.74;47.27
14383;BME280;7275;50.328;8.720;2022-11-20T10:05:52;99271.13;;;11.71;47.19
14383;BME280;7275;50.328;8.720;2022-11-20T10:08:22;99272.91;;;11.70;47.42
14383;BME280;7275;50.328;8.720;2022-11-20T10:10:54;99272.84;;;11.72;47.28
14383;BME280;7275;50.328;8.720;2022-11-20T10:13:37;99266.56;;;11.74;47.48
14383;BME280;7275;50.328;8.720;2022-11-20T10:16:19;99273.53;;;11.75;47.61
14383;BME280;7275;50.328;8.720;2022-11-20T10:19:01;99261.09;;;11.77;47.39
14383;BME280;7275;50.328;8.720;2022-11-20T10:24:38;99264.22;;;11.85;47.49
14383;BME280;7275;50.328;8.720;2022-11-20T10:27:21;99265.84;;;11.88;47.40
14383;BME280;7275;50.328;8.720;2022-11-20T10:30:00;99260.56;;;11.88;47.17
14383;BME280;7275;50.328;8.720;2022-11-20T10:32:34;99265.22;;;11.83;47.44
14383;BME280;7275;50.328;8.720;2022-11-20T10:35:14;99254.78;;;11.80;47.11
14383;BME280;7275;50.328;8.720;2022-11-20T10:37:45;99253.31;;;11.74;47.09
14383;BME280;7275;50.328;8.720;2022-11-20T10:40:20;99253.22;;;11.76;47.44
14383;BME280;7275;50.328;8.720;2022-11-20T10:42:52;99249.56;;;11.78;47.65
14383;BME280;7275;50.328;8.720;2022-11-20T10:45:36;99251.13;;;11.82;47.97
14383;BME280;7275;50.328;8.720;2022-11-20T10:48:15;99246.44;;;11.87;47.76
14383;BME280;7275;50.328;8.720;2022-11-20T10:50:53;99242.56;;;11.94;47.71
14383;BME280;7275;50.328;8.720;2022-11-20T10:53:33;99241.56;;;11.97;47.70
14383;BME280;7275;50.328;8.720;2022-11-20T10:56:15;99241.72;;;11.94;47.71
14383;BME280;7275;50.328;8.720;2022-11-20T10:58:52;99233.06;;;11.90;47.69
14383;BME280;7275;50.328;8.720;2022-11-20T11:01:23;99228.63;;;11.91;47.66
14383;BME280;7275;50.328;8.720;2022-11-20T11:03:54;99228.63;;;11.91;47.81
14383;BME280;7275;50.328;8.720;2022-11-20T11:06:27;99222.47;;;11.90;47.60
14383;BME280;7275;50.328;8.720;2022-11-20T11:09:00;99216.53;;;11.85;47.70
14383;BME280;7275;50.328;8.720;2022-11-20T11:11:32;99213.13;;;11.83;47.70
14383;BME280;7275;50.328;8.720;2022-11-20T11:14:04;99214.06;;;11.82;47.64
14383;BME280;7275;50.328;8.720;2022-11-20T11:16:34;99214.97;;;11.81;47.81
14383;BME280;7275;50.328;8.720;2022-11-20T11:19:05;99214.97;;;11.81;47.78
14383;BME280;7275;50.328;8.720;2022-11-20T11:21:33;99212.50;;;11.78;47.92
14383;BME280;7275;50.328;8.720;2022-11-20T11:24:03;99215.38;;;11.74;47.78
14383;BME280;7275;50.328;8.720;2022-11-20T11:26:53;99220.81;;;11.71;48.01
14383;BME280;7275;50.328;8.720;2022-11-20T11:29:23;99217.25;;;11.72;48.08
14383;BME280;7275;50.328;8.720;2022-11-20T11:32:04;99217.16;;;11.73;47.60
14383;BME280;7275;50.328;8.720;2022-11-20T11:34:33;99212.78;;;11.72;47.69
14383;BME280;7275;50.328;8.720;2022-11-20T11:37:01;99208.31;;;11.74;47.73
14383;BME280;7275;50.328;8.720;2022-11-20T11:39:31;99203.13;;;11.71;47.74
14383;BME280;7275;50.328;8.720;2022-11-20T11:42:00;99205.16;;;11.66;47.71
14383;BME280;7275;50.328;8.720;2022-11-20T11:44:31;99201.69;;;11.64;47.89
14383;BME280;7275;50.328;8.720;2022-11-20T11:47:23;99199.22;;;11.61;48.10
14383;BME280;7275;50.328;8.720;2022-11-20T11:50:01;99193.13;;;11.59;47.66
14383;BME280;7275;50.328;8.720;2022-11-20T11:52:31;99197.56;;;11.59;47.88
14383;BME280;7275;50.328;8.720;2022-11-20T11:55:04;99194.91;;;11.59;47.88
14383;BME280;7275;50.328;8.720;2022-11-20T11:57:43;99195.56;;;11.64;48.09
14383;BME280;7275;50.328;8.720;2022-11-20T12:00:15;99177.75;;;11.67;48.10
14383;BME280;7275;50.328;8.720;2022-11-20T12:02:54;99169.41;;;11.75;48.27
14383;BME280;7275;50.328;8.720;2022-11-20T12:05:27;99164.53;;;11.84;47.94
14383;BME280;7275;50.328;8.720;2022-11-20T12:07:59;99169.50;;;11.90;48.02
14383;BME280;7275;50.328;8.720;2022-11-20T12:10:41;99171.94;;;11.95;48.08
14383;BME280;7275;50.328;8.720;2022-11-20T12:13:20;99176.19;;;11.97;47.92
14383;BME280;7275;50.328;8.720;2022-11-20T12:15:49;99173.41;;;12.00;47.90
14383;BME280;7275;50.328;8.720;2022-11-20T12:18:20;99176.81;;;12.02;47.83
14383;BME280;7275;50.328;8.720;2022-11-20T12:20:57;99168.88;;;12.02;48.17
14383;BME280;7275;50.328;8.720;2022-11-20T12:23:36;99160.84;;;12.04;47.92
14383;BME280;7275;50.328;8.720;2022-11-20T12:26:15;99156.31;;;12.06;47.80
14383;BME280;7275;50.328;8.720;2022-11-20T12:29:02;99152.84;;;12.06;47.80
14383;BME280;7275;50.328;8.720;2022-11-20T12:31:48;99155.63;;;12.02;47.72
14383;BME280;7275;50.328;8.720;2022-11-20T12:34:43;99153.22;;;11.98;47.59
14383;BME280;7275;50.328;8.720;2022-11-20T12:37:20;99145.34;;;11.96;47.81
14383;BME280;7275;50.328;8.720;2022-11-20T12:39:54;99147.22;;;11.94;47.71
14383;BME280;7275;50.328;8.720;2022-11-20T12:42:44;99159.78;;;11.91;47.78
14383;BME280;7275;50.328;8.720;2022-11-20T12:45:57;99162.56;;;11.88;47.91
14383;BME280;7275;50.328;8.720;2022-11-20T12:48:48;99155.53;;;11.87;47.69
14383;BME280;7275;50.328;8.720;2022-11-20T12:51:31;99159.06;;;11.87;47.44
14383;BME280;7275;50.328;8.720;2022-11-20T12:54:16;99162.44;;;11.91;47.47
14383;BME280;7275;50.328;8.720;2022-11-20T12:56:57;99157.28;;;11.88;47.66
14383;BME280;7275;50.328;8.720;2022-11-20T12:59:38;99156.59;;;11.84;47.86
14383;BME280;7275;50.328;8.720;2022-11-20T13:02:24;99152.28;;;11.82;47.37
14383;BME280;7275;50.328;8.720;2022-11-20T13:05:03;99139.97;;;11.81;47.61
14383;BME280;7275;50.328;8.720;2022-11-20T13:07:35;99145.34;;;11.79;47.65
14383;BME280;7275;50.328;8.720;2022-11-20T13:10:03;99143.81;;;11.75;47.87
14383;BME280;7275;50.328;8.720;2022-11-20T13:12:43;99147.44;;;11.73;47.85
14383;BME280;7275;50.328;8.720;2022-11-20T13:15:21;99138.66;;;11.72;47.67
14383;BME280;7275;50.328;8.720;2022-11-20T13:17:56;99127.28;;;11.70;47.81
14383;BME280;7275;50.328;8.720;2022-11-20T13:20:25;99130.88;;;11.69;47.67
14383;BME280;7275;50.328;8.720;2022-11-20T13:22:56;99128.38;;;11.66;47.55
14383;BME280;7275;50.328;8.720;2022-11-20T13:25:26;99113.63;;;11.61;47.88
14383;BME280;7275;50.328;8.720;2022-11-20T13:27:55;99120.94;;;11.56;47.67
14383;BME280;7275;50.328;8.720;2022-11-20T13:30:24;99122.13;;;11.50;47.72
14383;BME280;7275;50.328;8.720;2022-11-20T13:32:53;99123.34;;;11.43;47.69
14383;BME280;7275;50.328;8.720;2022-11-20T13:35:31;99123.81;;;11.34;47.84
14383;BME280;7275;50.328;8.720;2022-11-20T13:38:02;99120.72;;;11.26;47.99
14383;BME280;7275;50.328;8.720;2022-11-20T13:40:30;99121.00;;;11.20;47.84